Time;durP1;ratioP1;P1;durP2;ratioP2;P2;SDS_P1;SDS_P2;PMS_P1;PMS_P2;Temp;Humidity;BMP_temperature;BMP_pressure;BME280_temperature;BME280_humidity;BME280_pressure;Samples;Min_cycle;Max_cycle;Signal;HPM_P1;HPM_P2
2024/01/02 00:01:53;;;;;;;23.70;6.13;;;;;;;-146.58;100.00;69501.63;5030242;28;20036;-63
2024/01/02 00:04:18;;;;;;;38.00;9.65;;;;;;;-146.58;100.00;69501.63;5029201;28;20100;-63
2024/01/02 00:06:46;;;;;;;30.23;9.18;;;;;;;-146.58;100.00;69501.63;5030259;28;20045;-63
2024/01/02 00:09:11;;;;;;;19.58;7.68;;;;;;;-146.58;100.00;69501.63;5028879;28;20037;-63
2024/01/02 00:11:37;;;;;;;27.45;8.80;;;;;;;-146.58;100.00;69501.63;5030191;28;20039;-63
2024/01/02 00:14:02;;;;;;;21.23;6.53;;;;;;;-146.58;100.00;69501.63;5038893;28;20405;-63
2024/01/02 00:16:28;;;;;;;25.75;5.85;;;;;;;-146.58;100.00;69501.63;5029788;28;20040;-63
2024/01/02 00:18:53;;;;;;;16.17;7.38;;;;;;;-146.58;100.00;69501.63;5029167;28;20017;-63
2024/01/02 00:21:18;;;;;;;18.83;6.50;;;;;;;-146.58;100.00;69501.63;5030628;28;20477;-63
2024/01/02 00:23:44;;;;;;;20.60;6.88;;;;;;;-146.58;100.00;69501.63;5028471;28;20100;-63
2024/01/02 00:26:09;;;;;;;23.15;9.07;;;;;;;-146.58;100.00;69501.63;5030562;28;20033;-63
2024/01/02 00:28:34;;;;;;;33.50;8.23;;;;;;;-146.58;100.00;69501.63;5032645;28;20025;-62
2024/01/02 00:31:00;;;;;;;23.15;6.15;;;;;;;-146.58;100.00;69501.63;5033340;28;20021;-63
2024/01/02 00:33:25;;;;;;;20.33;7.10;;;;;;;-146.58;100.00;69501.63;5033694;28;20021;-63
2024/01/02 00:35:50;;;;;;;41.88;10.57;;;;;;;-146.58;100.00;69501.63;5032558;28;20056;-63
2024/01/02 00:38:16;;;;;;;28.23;7.50;;;;;;;-146.58;100.00;69501.63;5033408;28;20151;-63
2024/01/02 00:40:42;;;;;;;29.17;8.38;;;;;;;-146.58;100.00;69501.63;5032385;28;20029;-63
2024/01/02 00:43:07;;;;;;;20.50;9.95;;;;;;;-146.58;100.00;69501.63;5042557;28;20029;-63
2024/01/02 00:45:32;;;;;;;27.48;7.43;;;;;;;-146.58;100.00;69501.63;5051788;28;20037;-63
2024/01/02 00:47:58;;;;;;;26.42;8.52;;;;;;;-146.58;100.00;69501.63;5054120;28;20035;-63
2024/01/02 00:50:23;;;;;;;22.35;8.35;;;;;;;-146.58;100.00;69501.63;5049044;28;20044;-62
2024/01/02 00:52:49;;;;;;;16.10;5.53;;;;;;;-146.58;100.00;69501.63;5033447;28;20021;-62
2024/01/02 00:55:15;;;;;;;25.65;6.80;;;;;;;-146.58;100.00;69501.63;5032327;28;20073;-62
2024/01/02 00:57:40;;;;;;;16.55;8.48;;;;;;;-146.58;100.00;69501.63;5033363;28;20574;-62
2024/01/02 01:00:06;;;;;;;25.98;7.40;;;;;;;-146.58;100.00;69501.63;5045429;28;20040;-62
2024/01/02 01:02:32;;;;;;;25.25;5.25;;;;;;;-146.58;100.00;69501.63;5037595;28;20022;-62
2024/01/02 01:04:57;;;;;;;29.80;9.55;;;;;;;-146.58;100.00;69501.63;5032272;28;20428;-62
2024/01/02 01:07:23;;;;;;;34.83;10.65;;;;;;;-146.58;100.00;69501.63;5037183;28;20017;-62
2024/01/02 01:09:48;;;;;;;49.95;10.98;;;;;;;-146.58;100.00;69501.63;5051917;28;20164;-62
2024/01/02 01:12:14;;;;;;;12.05;7.43;;;;;;;-146.58;100.00;69501.63;5035292;28;20029;-62
2024/01/02 01:14:39;;;;;;;20.67;6.70;;;;;;;-146.58;100.00;69501.63;5031275;28;20049;-62
2024/01/02 01:17:06;;;;;;;38.40;7.88;;;;;;;-146.58;100.00;69501.63;5033023;28;20029;-62
2024/01/02 01:19:31;;;;;;;19.02;8.00;;;;;;;-146.58;100.00;69501.63;5031827;28;20033;-62
2024/01/02 01:21:57;;;;;;;28.00;6.38;;;;;;;-146.58;100.00;69501.63;5041337;28;20389;-62
2024/01/02 01:24:22;;;;;;;28.55;7.05;;;;;;;-146.58;100.00;69501.63;5031918;28;20033;-62
2024/01/02 01:26:52;;;;;;;26.42;6.53;;;;;;;-146.58;100.00;69501.63;5032847;28;20030;-62
2024/01/02 01:29:19;;;;;;;23.88;6.80;;;;;;;-146.58;100.00;69501.63;5031083;28;20606;-63
2024/01/02 01:31:44;;;;;;;21.95;7.63;;;;;;;-146.58;100.00;69501.63;5032766;28;20457;-62
2024/01/02 01:34:10;;;;;;;19.23;5.57;;;;;;;-146.58;100.00;69501.63;5031636;28;20029;-62
2024/01/02 01:36:35;;;;;;;35.42;9.00;;;;;;;-146.58;100.00;69501.63;5046364;28;20399;-62
2024/01/02 01:39:02;;;;;;;24.55;6.82;;;;;;;-146.58;100.00;69501.63;5051160;28;20032;-62
2024/01/02 01:41:27;;;;;;;19.95;6.65;;;;;;;-146.58;100.00;69501.63;5041439;28;20041;-62
2024/01/02 01:43:53;;;;;;;20.23;6.57;;;;;;;-146.58;100.00;69501.63;5031007;28;20041;-62
2024/01/02 01:46:18;;;;;;;15.88;6.85;;;;;;;-146.58;100.00;69501.63;5032815;28;20049;-62
2024/01/02 01:48:45;;;;;;;22.10;6.90;;;;;;;-146.58;100.00;69501.63;5030928;28;20033;-62
2024/01/02 01:51:10;;;;;;;16.42;6.00;;;;;;;-146.58;100.00;69501.63;5032101;28;20132;-62
2024/01/02 01:53:37;;;;;;;16.52;6.35;;;;;;;-146.58;100.00;69501.63;5030679;28;20507;-61
2024/01/02 01:56:03;;;;;;;12.70;5.82;;;;;;;-146.58;100.00;69501.63;5032544;28;20022;-63
2024/01/02 01:58:30;;;;;;;17.58;8.32;;;;;;;-146.58;100.00;69501.63;5031682;28;20079;-63
2024/01/02 02:00:56;;;;;;;16.35;5.60;;;;;;;-146.58;100.00;69501.63;5050959;28;20036;-62
2024/01/02 02:03:25;;;;;;;13.65;4.45;;;;;;;-146.58;100.00;69501.63;5052477;28;20032;-62
2024/01/02 02:05:50;;;;;;;18.65;6.60;;;;;;;-146.58;100.00;69501.63;5050518;28;20504;-62
2024/01/02 02:08:16;;;;;;;21.02;7.10;;;;;;;-146.58;100.00;69501.63;5052306;28;20024;-62
2024/01/02 02:10:41;;;;;;;18.13;6.80;;;;;;;-146.58;100.00;69501.63;5050499;28;20404;-62
2024/01/02 02:13:06;;;;;;;18.58;5.75;;;;;;;-146.58;100.00;69501.63;5051774;28;20029;-62
2024/01/02 02:15:34;;;;;;;8.35;4.40;;;;;;;-146.58;100.00;69501.63;5050109;28;20048;-62
2024/01/02 02:17:59;;;;;;;10.80;4.68;;;;;;;-146.58;100.00;69501.63;5046638;28;20488;-62
2024/01/02 02:20:24;;;;;;;14.50;4.95;;;;;;;-146.58;100.00;69501.63;5029694;28;20033;-63
2024/01/02 02:22:51;;;;;;;9.70;4.57;;;;;;;-146.58;100.00;69501.63;5032143;28;20021;-62
2024/01/02 02:25:18;;;;;;;11.02;4.55;;;;;;;-146.58;100.00;69501.63;5030625;28;20042;-62
2024/01/02 02:27:45;;;;;;;15.50;5.82;;;;;;;-146.58;100.00;69501.63;5031348;28;20962;-63
2024/01/02 02:30:11;;;;;;;10.65;4.38;;;;;;;-146.58;100.00;69501.63;5030245;28;20048;-63
2024/01/02 02:32:36;;;;;;;9.13;3.65;;;;;;;-146.58;100.00;69501.63;5031710;28;20045;-62
2024/01/02 02:35:02;;;;;;;9.90;3.88;;;;;;;-146.58;100.00;69501.63;5030386;28;20580;-62
2024/01/02 02:37:27;;;;;;;13.07;4.28;;;;;;;-146.58;100.00;69501.63;5031040;28;20048;-62
2024/01/02 02:39:52;;;;;;;7.57;3.20;;;;;;;-146.58;100.00;69501.63;5030352;28;20040;-62
2024/01/02 02:42:18;;;;;;;7.68;3.45;;;;;;;-146.58;100.00;69501.63;5031719;28;20021;-63
2024/01/02 02:44:43;;;;;;;11.40;4.82;;;;;;;-146.58;100.00;69501.63;5029941;28;20711;-63
2024/01/02 02:47:10;;;;;;;6.65;3.90;;;;;;;-146.58;100.00;69501.63;5046094;28;20071;-63
2024/01/02 02:49:36;;;;;;;8.88;4.22;;;;;;;-146.58;100.00;69501.63;5049368;28;20455;-63
2024/01/02 02:52:02;;;;;;;11.43;4.10;;;;;;;-146.58;100.00;69501.63;5051324;28;20544;-63
2024/01/02 02:54:27;;;;;;;8.65;3.22;;;;;;;-146.58;100.00;69501.63;5037152;28;20049;-63
2024/01/02 02:56:53;;;;;;;6.15;3.40;;;;;;;-146.58;100.00;69501.63;5031355;28;20024;-63
2024/01/02 02:59:18;;;;;;;4.07;2.72;;;;;;;-146.58;100.00;69501.63;5029581;28;20038;-63
2024/01/02 03:01:44;;;;;;;8.18;3.85;;;;;;;-146.58;100.00;69501.63;5043977;28;20122;-63
2024/01/02 03:04:09;;;;;;;9.90;4.35;;;;;;;-146.58;100.00;69501.63;5049447;28;20102;-63
2024/01/02 03:06:34;;;;;;;5.78;3.38;;;;;;;-146.58;100.00;69501.63;5050600;28;20086;-63
2024/01/02 03:09:00;;;;;;;8.60;3.58;;;;;;;-146.58;100.00;69501.63;5049838;28;20037;-63
2024/01/02 03:11:25;;;;;;;4.95;3.65;;;;;;;-146.58;100.00;69501.63;5050854;28;20044;-63
2024/01/02 03:13:50;;;;;;;6.85;2.75;;;;;;;-146.58;100.00;69501.63;5049298;28;20025;-62
2024/01/02 03:16:16;;;;;;;5.78;2.50;;;;;;;-146.58;100.00;69501.63;5041360;28;20032;-62
2024/01/02 03:18:41;;;;;;;3.05;2.20;;;;;;;-146.58;100.00;69501.63;5029442;28;20025;-61
2024/01/02 03:21:13;;;;;;;5.25;3.05;;;;;;;-146.58;100.00;69501.63;5030700;28;20022;-62
2024/01/02 03:23:38;;;;;;;19.55;4.25;;;;;;;-146.58;100.00;69501.63;5029588;28;20071;-61
2024/01/02 03:26:04;;;;;;;5.82;3.13;;;;;;;-146.58;100.00;69501.63;5030914;28;20021;-62
2024/01/02 03:28:30;;;;;;;5.68;2.85;;;;;;;-146.58;100.00;69501.63;5030623;28;20033;-62
2024/01/02 03:30:56;;;;;;;11.05;4.03;;;;;;;-146.58;100.00;69501.63;5029303;28;20037;-62
2024/01/02 03:33:22;;;;;;;5.68;3.42;;;;;;;-146.58;100.00;69501.63;5030992;28;20520;-62
2024/01/02 03:35:47;;;;;;;4.47;2.67;;;;;;;-146.58;100.00;69501.63;5029058;28;20056;-62
2024/01/02 03:38:13;;;;;;;3.63;2.00;;;;;;;-146.58;100.00;69501.63;5030679;28;20083;-62
2024/01/02 03:40:39;;;;;;;12.65;4.75;;;;;;;-146.58;100.00;69501.63;5029029;28;20046;-62
2024/01/02 03:43:05;;;;;;;5.47;3.08;;;;;;;-146.58;100.00;69501.63;5030537;28;20029;-62
2024/01/02 03:45:30;;;;;;;2.58;2.28;;;;;;;-146.58;100.00;69501.63;5045946;28;20106;-62
2024/01/02 03:47:56;;;;;;;3.35;2.42;;;;;;;-146.58;100.00;69501.63;5050757;28;20075;-62
2024/01/02 03:50:21;;;;;;;3.03;2.45;;;;;;;-146.58;100.00;69501.63;5034883;28;20049;-62
2024/01/02 03:52:46;;;;;;;8.60;3.13;;;;;;;-146.58;100.00;69501.63;5030567;28;20067;-62
2024/01/02 03:55:12;;;;;;;5.70;2.35;;;;;;;-146.58;100.00;69501.63;5029288;28;20497;-62
2024/01/02 03:57:37;;;;;;;5.85;2.42;;;;;;;-146.58;100.00;69501.63;5030097;28;20099;-61
2024/01/02 04:00:04;;;;;;;3.72;2.03;;;;;;;-146.58;100.00;69501.63;5044198;28;20037;-62
2024/01/02 04:02:30;;;;;;;2.55;2.17;;;;;;;-146.58;100.00;69501.63;5052445;28;20082;-62
2024/01/02 04:04:55;;;;;;;3.72;3.22;;;;;;;-146.58;100.00;69501.63;5052928;28;20036;-62
2024/01/02 04:07:22;;;;;;;3.00;2.28;;;;;;;-146.58;100.00;69501.63;5054611;28;20037;-62
2024/01/02 04:09:47;;;;;;;4.70;2.72;;;;;;;-146.58;100.00;69501.63;5052769;28;20127;-62
2024/01/02 04:12:13;;;;;;;6.38;3.88;;;;;;;-146.58;100.00;69501.63;5054147;28;20438;-62
2024/01/02 04:14:38;;;;;;;3.88;2.13;;;;;;;-146.58;100.00;69501.63;5038949;28;20432;-62
2024/01/02 04:17:03;;;;;;;2.55;2.33;;;;;;;-146.58;100.00;69501.63;5033934;28;20025;-63
2024/01/02 04:19:29;;;;;;;4.38;2.65;;;;;;;-146.58;100.00;69501.63;5031824;28;20044;-63
2024/01/02 04:21:54;;;;;;;2.55;2.10;;;;;;;-146.58;100.00;69501.63;5034293;28;20071;-63
2024/01/02 04:24:20;;;;;;;3.90;2.70;;;;;;;-146.58;100.00;69501.63;5032952;28;20500;-63
2024/01/02 04:26:45;;;;;;;2.40;2.20;;;;;;;-146.58;100.00;69501.63;5033546;28;20028;-62
2024/01/02 04:29:10;;;;;;;7.93;2.90;;;;;;;-146.58;100.00;69501.63;5033143;28;20091;-63
2024/01/02 04:31:36;;;;;;;8.95;2.45;;;;;;;-146.58;100.00;69501.63;5049498;28;20063;-62
2024/01/02 04:34:01;;;;;;;2.40;2.10;;;;;;;-146.58;100.00;69501.63;5052330;28;20033;-62
2024/01/02 04:36:26;;;;;;;3.03;2.50;;;;;;;-146.58;100.00;69501.63;5053393;28;20025;-62
2024/01/02 04:38:52;;;;;;;4.53;3.28;;;;;;;-146.58;100.00;69501.63;5034921;28;20040;-62
2024/01/02 04:41:18;;;;;;;2.47;2.28;;;;;;;-146.58;100.00;69501.63;5035746;28;20044;-62
2024/01/02 04:43:44;;;;;;;2.92;2.40;;;;;;;-146.58;100.00;69501.63;5045605;28;20515;-62
2024/01/02 04:46:10;;;;;;;3.92;3.63;;;;;;;-146.58;100.00;69501.63;5033817;28;20393;-62
2024/01/02 04:48:35;;;;;;;2.85;2.58;;;;;;;-146.58;100.00;69501.63;5031967;28;20040;-61
2024/01/02 04:51:00;;;;;;;4.97;3.40;;;;;;;-146.58;100.00;69501.63;5033787;28;20025;-62
2024/01/02 04:53:26;;;;;;;3.13;2.70;;;;;;;-146.58;100.00;69501.63;5033783;28;20032;-62
2024/01/02 04:55:51;;;;;;;3.15;2.80;;;;;;;-146.58;100.00;69501.63;5045455;28;20041;-62
2024/01/02 04:58:17;;;;;;;4.93;3.15;;;;;;;-146.58;100.00;69501.63;5053212;28;20570;-62
2024/01/02 05:00:42;;;;;;;2.40;2.30;;;;;;;-146.58;100.00;69501.63;5051732;28;20044;-62
2024/01/02 05:03:07;;;;;;;2.47;2.28;;;;;;;-146.58;100.00;69501.63;5053230;28;20017;-62
2024/01/02 05:05:33;;;;;;;2.50;2.30;;;;;;;-146.58;100.00;69501.63;5051722;28;20404;-63
2024/01/02 05:07:58;;;;;;;2.80;2.60;;;;;;;-146.58;100.00;69501.63;5037460;28;20029;-62
2024/01/02 05:10:24;;;;;;;2.75;2.55;;;;;;;-146.58;100.00;69501.63;5031162;28;20080;-62
2024/01/02 05:12:50;;;;;;;2.45;2.25;;;;;;;-146.58;100.00;69501.63;5032510;28;20083;-62
2024/01/02 05:15:16;;;;;;;2.25;2.15;;;;;;;-146.58;100.00;69501.63;5031795;28;20107;-62
2024/01/02 05:17:41;;;;;;;2.63;2.50;;;;;;;-146.58;100.00;69501.63;5033091;28;20561;-61
2024/01/02 05:20:08;;;;;;;3.47;3.28;;;;;;;-146.58;100.00;69501.63;5031360;28;20223;-61
2024/01/02 05:22:34;;;;;;;2.75;1.90;;;;;;;-146.58;100.00;69501.63;5033282;28;20056;-62
2024/01/02 05:25:00;;;;;;;2.42;2.33;;;;;;;-146.58;100.00;69501.63;5032040;28;20061;-61
2024/01/02 05:27:25;;;;;;;2.03;1.92;;;;;;;-146.58;100.00;69501.63;5032319;28;20030;-61
2024/01/02 05:29:51;;;;;;;1.90;1.80;;;;;;;-146.58;100.00;69501.63;5031391;28;20516;-61
2024/01/02 05:32:16;;;;;;;4.88;3.53;;;;;;;-146.58;100.00;69501.63;5032931;28;20389;-61
2024/01/02 05:34:42;;;;;;;2.40;2.30;;;;;;;-146.58;100.00;69501.63;5030915;28;20034;-61
2024/01/02 05:37:07;;;;;;;2.50;2.30;;;;;;;-146.58;100.00;69501.63;5032606;28;20084;-62
2024/01/02 05:39:32;;;;;;;2.60;2.40;;;;;;;-146.58;100.00;69501.63;5034842;28;20045;-62
2024/01/02 05:41:58;;;;;;;2.78;2.58;;;;;;;-146.58;100.00;69501.63;5052473;28;20029;-61
2024/01/02 05:44:23;;;;;;;2.60;2.50;;;;;;;-146.58;100.00;69501.63;5038203;28;20037;-62
2024/01/02 05:46:48;;;;;;;2.65;2.55;;;;;;;-146.58;100.00;69501.63;5037828;28;20395;-62
2024/01/02 05:49:14;;;;;;;3.67;3.38;;;;;;;-146.58;100.00;69501.63;5038884;28;20106;-62
2024/01/02 05:51:39;;;;;;;3.15;2.95;;;;;;;-146.58;100.00;69501.63;5046273;28;20030;-61
2024/01/02 05:54:05;;;;;;;3.63;3.33;;;;;;;-146.58;100.00;69501.63;5031234;28;20496;-63
2024/01/02 05:56:30;;;;;;;3.40;3.20;;;;;;;-146.58;100.00;69501.63;5030992;28;20036;-62
2024/01/02 05:58:55;;;;;;;3.75;3.45;;;;;;;-146.58;100.00;69501.63;5028873;28;20052;-62
2024/01/02 06:01:21;;;;;;;3.70;3.50;;;;;;;-146.58;100.00;69501.63;5034839;28;20025;-62
2024/01/02 06:03:46;;;;;;;3.75;3.45;;;;;;;-146.58;100.00;69501.63;5045997;28;20025;-62
2024/01/02 06:06:13;;;;;;;4.28;3.95;;;;;;;-146.58;100.00;69501.63;5052508;28;20041;-61
2024/01/02 06:08:38;;;;;;;3.92;3.70;;;;;;;-146.58;100.00;69501.63;5047984;28;20033;-62
2024/01/02 06:11:05;;;;;;;4.93;4.00;;;;;;;-146.58;100.00;69501.63;5051760;28;20036;-61
2024/01/02 06:13:30;;;;;;;19.05;4.63;;;;;;;-146.58;100.00;69501.63;5034925;28;20029;-61
2024/01/02 06:15:56;;;;;;;3.63;3.42;;;;;;;-146.58;100.00;69501.63;5030237;28;20049;-62
2024/01/02 06:18:21;;;;;;;3.72;3.53;;;;;;;-146.58;100.00;69501.63;5031551;28;20076;-61
2024/01/02 06:20:46;;;;;;;4.65;4.30;;;;;;;-146.58;100.00;69501.63;5030045;28;20038;-61
2024/01/02 06:23:12;;;;;;;4.68;4.28;;;;;;;-146.58;100.00;69501.63;5032006;28;20025;-62
2024/01/02 06:25:38;;;;;;;4.70;4.30;;;;;;;-146.58;100.00;69501.63;5029050;28;20073;-61
2024/01/02 06:28:03;;;;;;;4.55;4.25;;;;;;;-146.58;100.00;69501.63;5040317;28;20027;-61
2024/01/02 06:30:28;;;;;;;5.07;4.68;;;;;;;-146.58;100.00;69501.63;5044229;28;20140;-61
2024/01/02 06:32:54;;;;;;;4.90;4.50;;;;;;;-146.58;100.00;69501.63;5036949;28;20022;-62
2024/01/02 06:35:19;;;;;;;4.30;4.00;;;;;;;-146.58;100.00;69501.63;5029929;28;20496;-62
2024/01/02 06:37:45;;;;;;;4.65;4.25;;;;;;;-146.58;100.00;69501.63;5031280;28;20496;-61
2024/01/02 06:40:10;;;;;;;5.07;4.70;;;;;;;-146.58;100.00;69501.63;5028080;28;20037;-62
2024/01/02 06:42:36;;;;;;;5.18;4.78;;;;;;;-146.58;100.00;69501.63;5029376;28;20021;-61
2024/01/02 06:45:01;;;;;;;5.68;5.20;;;;;;;-146.58;100.00;69501.63;5029630;28;20053;-62
2024/01/02 06:47:27;;;;;;;5.78;4.88;;;;;;;-146.58;100.00;69501.63;5029862;28;20021;-62
2024/01/02 06:49:52;;;;;;;5.22;4.82;;;;;;;-146.58;100.00;69501.63;5028884;28;20048;-61
2024/01/02 06:52:17;;;;;;;4.60;4.20;;;;;;;-146.58;100.00;69501.63;5031011;28;20111;-63
2024/01/02 06:54:43;;;;;;;4.35;3.85;;;;;;;-146.58;100.00;69501.63;5029014;28;20056;-62
2024/01/02 06:57:08;;;;;;;4.97;4.57;;;;;;;-146.58;100.00;69501.63;5029869;28;20025;-62
2024/01/02 06:59:34;;;;;;;4.95;4.55;;;;;;;-146.58;100.00;69501.63;5029300;28;20073;-61
2024/01/02 07:01:59;;;;;;;4.32;4.03;;;;;;;-146.58;100.00;69501.63;5030418;28;20380;-59
2024/01/02 07:04:24;;;;;;;4.05;3.75;;;;;;;-146.58;100.00;69501.63;5027597;28;20047;-59
2024/01/02 07:06:50;;;;;;;4.43;3.95;;;;;;;-146.58;100.00;69501.63;5033031;28;20052;-59
2024/01/02 07:09:16;;;;;;;5.40;4.90;;;;;;;-146.58;100.00;69501.63;5048856;28;20033;-59
2024/01/02 07:11:41;;;;;;;4.88;4.47;;;;;;;-146.58;100.00;69501.63;5040737;28;20033;-59
2024/01/02 07:14:07;;;;;;;6.20;5.68;;;;;;;-146.58;100.00;69501.63;5034913;28;20087;-59
2024/01/02 07:16:32;;;;;;;5.38;4.72;;;;;;;-146.58;100.00;69501.63;5030921;28;20459;-60
2024/01/02 07:18:57;;;;;;;6.30;4.65;;;;;;;-146.58;100.00;69501.63;5029750;28;20037;-59
2024/01/02 07:21:23;;;;;;;6.25;5.68;;;;;;;-146.58;100.00;69501.63;5050096;28;20142;-59
2024/01/02 07:23:48;;;;;;;5.63;5.15;;;;;;;-146.58;100.00;69501.63;5048264;28;20040;-59
2024/01/02 07:26:14;;;;;;;5.07;4.57;;;;;;;-146.58;100.00;69501.63;5040470;28;20061;-59
2024/01/02 07:28:39;;;;;;;5.43;4.93;;;;;;;-146.58;100.00;69501.63;5028799;28;20037;-59
2024/01/02 07:31:05;;;;;;;5.55;5.05;;;;;;;-146.58;100.00;69501.63;5034015;28;20083;-59
2024/01/02 07:33:30;;;;;;;4.82;4.43;;;;;;;-146.58;100.00;69501.63;5044070;28;20024;-59
2024/01/02 07:35:55;;;;;;;7.07;5.22;;;;;;;-146.58;100.00;69501.63;5048646;28;20041;-59
2024/01/02 07:38:25;;;;;;;5.38;4.53;;;;;;;-146.58;100.00;69501.63;5048502;28;20032;-59
2024/01/02 07:40:51;;;;;;;5.30;4.80;;;;;;;-146.58;100.00;69501.63;5027285;28;20120;-59
2024/01/02 07:43:17;;;;;;;5.60;5.10;;;;;;;-146.58;100.00;69501.63;5034290;28;20507;-59
2024/01/02 07:45:42;;;;;;;6.63;5.93;;;;;;;-146.58;100.00;69501.63;5045559;28;20053;-59
2024/01/02 07:48:07;;;;;;;6.38;5.78;;;;;;;-146.58;100.00;69501.63;5027932;28;20041;-60
2024/01/02 07:50:33;;;;;;;6.03;5.43;;;;;;;-146.58;100.00;69501.63;5029407;28;20409;-59
2024/01/02 07:52:58;;;;;;;6.13;5.55;;;;;;;-146.58;100.00;69501.63;5045345;28;20071;-59
2024/01/02 07:55:23;;;;;;;7.00;5.78;;;;;;;-146.58;100.00;69501.63;5027557;28;20037;-59
2024/01/02 07:57:49;;;;;;;6.00;5.40;;;;;;;-146.58;100.00;69501.63;5029605;28;20392;-59
2024/01/02 08:00:15;;;;;;;6.13;5.53;;;;;;;-146.58;100.00;69501.63;5043298;28;20048;-59
2024/01/02 08:02:40;;;;;;;8.18;6.95;;;;;;;-146.58;100.00;69501.63;5032150;28;20563;-59
2024/01/02 08:05:06;;;;;;;8.65;6.65;;;;;;;-146.58;100.00;69501.63;5025864;28;20042;-59
2024/01/02 08:07:31;;;;;;;9.48;8.05;;;;;;;-146.58;100.00;69501.63;5029667;28;20060;-60
2024/01/02 08:09:57;;;;;;;11.27;8.07;;;;;;;-146.58;100.00;69501.63;5028211;28;20040;-57
2024/01/02 08:12:22;;;;;;;10.70;7.93;;;;;;;-146.58;100.00;69501.63;5044360;28;20066;-57
2024/01/02 08:14:47;;;;;;;11.60;9.45;;;;;;;-146.58;100.00;69501.63;5031669;28;20519;-57
2024/01/02 08:17:13;;;;;;;13.27;9.73;;;;;;;-146.58;100.00;69501.63;5028876;28;20026;-58
2024/01/02 08:19:38;;;;;;;11.20;9.15;;;;;;;-146.58;100.00;69501.63;5027650;28;20038;-59
2024/01/02 08:22:04;;;;;;;11.38;8.70;;;;;;;-146.58;100.00;69501.63;5029612;28;20029;-60
2024/01/02 08:24:29;;;;;;;12.05;9.00;;;;;;;-146.58;100.00;69501.63;5036106;28;20069;-59
2024/01/02 08:26:54;;;;;;;15.35;9.82;;;;;;;-146.58;100.00;69501.63;5031681;28;20062;-59
2024/01/02 08:29:20;;;;;;;17.35;10.10;;;;;;;-146.58;100.00;69501.63;5029317;28;20075;-60
2024/01/02 08:31:45;;;;;;;14.52;9.57;;;;;;;-146.58;100.00;69501.63;5030711;28;20025;-59
2024/01/02 08:34:10;;;;;;;21.60;11.10;;;;;;;-146.58;100.00;69501.63;5032282;28;20500;-60
2024/01/02 08:36:36;;;;;;;10.88;9.25;;;;;;;-146.58;100.00;69501.63;5029464;28;20025;-59
2024/01/02 08:39:03;;;;;;;16.35;11.32;;;;;;;-146.58;100.00;69501.63;5027980;28;20416;-59
2024/01/02 08:41:28;;;;;;;19.70;10.13;;;;;;;-146.58;100.00;69501.63;5028737;28;20032;-60
2024/01/02 08:43:54;;;;;;;27.92;10.77;;;;;;;-146.58;100.00;69501.63;5028457;28;20030;-59
2024/01/02 08:46:19;;;;;;;12.27;9.88;;;;;;;-146.58;100.00;69501.63;5042847;28;20032;-59
2024/01/02 08:48:44;;;;;;;13.88;8.98;;;;;;;-146.58;100.00;69501.63;5048032;28;20029;-59
2024/01/02 08:51:10;;;;;;;28.67;10.02;;;;;;;-146.58;100.00;69501.63;5022395;28;20033;-59
2024/01/02 08:53:35;;;;;;;22.73;9.25;;;;;;;-146.58;100.00;69501.63;5032513;28;20108;-59
2024/01/02 08:56:00;;;;;;;11.98;7.72;;;;;;;-146.58;100.00;69501.63;5042840;28;20500;-59
2024/01/02 08:58:26;;;;;;;23.85;8.15;;;;;;;-146.58;100.00;69501.63;5045583;28;20033;-59
2024/01/02 09:00:51;;;;;;;30.80;11.05;;;;;;;-146.58;100.00;69501.63;5038536;28;20048;-60
2024/01/02 09:03:16;;;;;;;21.80;8.07;;;;;;;-146.58;100.00;69501.63;5047295;28;20021;-59
2024/01/02 09:05:42;;;;;;;19.80;7.70;;;;;;;-146.58;100.00;69501.63;5031310;28;20501;-59
2024/01/02 09:08:08;;;;;;;41.55;9.85;;;;;;;-146.58;100.00;69501.63;5032807;28;20025;-59
2024/01/02 09:10:33;;;;;;;23.10;10.82;;;;;;;-146.58;100.00;69501.63;5030434;28;20038;-59
2024/01/02 09:12:59;;;;;;;18.13;7.75;;;;;;;-146.58;100.00;69501.63;5032986;28;20025;-59
2024/01/02 09:15:24;;;;;;;19.65;9.20;;;;;;;-146.58;100.00;69501.63;5030975;28;20436;-59
2024/01/02 09:17:49;;;;;;;11.30;5.70;;;;;;;-146.58;100.00;69501.63;5031725;28;20025;-59
2024/01/02 09:20:15;;;;;;;15.88;5.40;;;;;;;-146.58;100.00;69501.63;5031341;28;20056;-59
2024/01/02 09:22:40;;;;;;;9.45;6.20;;;;;;;-146.58;100.00;69501.63;5031216;28;20029;-59
2024/01/02 09:25:10;;;;;;;15.88;6.70;;;;;;;-146.58;100.00;69501.63;5030288;28;20042;-59
2024/01/02 09:27:37;;;;;;;20.13;6.78;;;;;;;-146.58;100.00;69501.63;5032648;28;20401;-59
2024/01/02 09:30:04;;;;;;;18.83;7.00;;;;;;;-146.58;100.00;69501.63;5030270;28;20068;-59
2024/01/02 09:32:30;;;;;;;17.40;5.97;;;;;;;-146.58;100.00;69501.63;5031173;28;20029;-59
2024/01/02 09:34:55;;;;;;;14.88;6.28;;;;;;;-146.58;100.00;69501.63;5031135;28;20572;-59
2024/01/02 09:37:21;;;;;;;16.55;8.23;;;;;;;-146.58;100.00;69501.63;5031955;28;20052;-59
2024/01/02 09:39:47;;;;;;;22.45;9.52;;;;;;;-146.58;100.00;69501.63;5030097;28;20077;-59
2024/01/02 09:42:28;;;;;;;23.75;7.90;;;;;;;-146.58;100.00;69501.63;5041156;28;20556;-59
2024/01/02 09:45:18;;;;;;;22.38;8.60;;;;;;;-146.58;100.00;69501.63;5049296;28;20067;-59
2024/01/02 09:47:52;;;;;;;22.88;7.40;;;;;;;-146.58;100.00;69501.63;5050174;28;20327;-59
2024/01/02 09:50:26;;;;;;;25.55;10.20;;;;;;;-146.58;100.00;69501.63;5048077;28;20602;-59
2024/01/02 09:53:07;;;;;;;33.63;9.65;;;;;;;-146.58;100.00;69501.63;5030514;28;20029;-59
2024/01/02 09:55:50;;;;;;;24.40;8.20;;;;;;;-146.58;100.00;69501.63;5028301;28;20132;-59
2024/01/02 09:58:25;;;;;;;28.70;9.60;;;;;;;-146.58;100.00;69501.63;5030684;28;20033;-59
2024/01/02 10:00:56;;;;;;;33.60;10.02;;;;;;;-146.58;100.00;69501.63;5030172;28;20030;-59
2024/01/02 10:03:30;;;;;;;24.27;10.18;;;;;;;-146.58;100.00;69501.63;5033408;28;20074;-59
2024/01/02 10:06:17;;;;;;;27.73;8.10;;;;;;;-146.58;100.00;69501.63;5030099;28;20042;-59
2024/01/02 10:09:11;;;;;;;17.33;8.77;;;;;;;-146.58;100.00;69501.63;5028923;28;20099;-59
2024/01/02 10:12:14;;;;;;;23.67;8.48;;;;;;;-146.58;100.00;69501.63;5031227;28;20029;-59
2024/01/02 10:15:00;;;;;;;17.95;8.30;;;;;;;-146.58;100.00;69501.63;5029653;28;20048;-59
2024/01/02 10:18:03;;;;;;;21.95;9.15;;;;;;;-146.58;100.00;69501.63;5027964;28;20029;-59
2024/01/02 10:20:55;;;;;;;20.02;8.60;;;;;;;-146.58;100.00;69501.63;5026792;28;20049;-59
2024/01/02 10:23:37;;;;;;;14.77;10.07;;;;;;;-146.58;100.00;69501.63;5021600;28;20049;-59
2024/01/02 10:26:07;;;;;;;31.83;11.68;;;;;;;-146.58;100.00;69501.63;5012916;28;20037;-59
2024/01/02 10:28:35;;;;;;;16.90;10.07;;;;;;;-146.58;100.00;69501.63;5021768;28;20036;-59
2024/01/02 10:31:11;;;;;;;20.70;11.00;;;;;;;-146.58;100.00;69501.63;5044358;28;20045;-59
2024/01/02 10:33:38;;;;;;;16.50;9.98;;;;;;;-146.58;100.00;69501.63;5036911;28;20041;-59
2024/01/02 10:36:08;;;;;;;21.90;13.88;;;;;;;-146.58;100.00;69501.63;5043847;28;20160;-59
2024/01/02 10:38:49;;;;;;;38.45;12.70;;;;;;;-146.58;100.00;69501.63;5027914;28;20095;-59
2024/01/02 10:41:36;;;;;;;27.83;11.45;;;;;;;-146.58;100.00;69501.63;5029715;28;20111;-59
2024/01/02 10:44:40;;;;;;;26.00;12.80;;;;;;;-146.58;100.00;69501.63;5029446;28;20041;-59
2024/01/02 10:47:25;;;;;;;20.42;12.15;;;;;;;-146.58;100.00;69501.63;5029441;28;20059;-59
2024/01/02 10:49:56;;;;;;;19.35;10.82;;;;;;;-146.58;100.00;69501.63;5028571;28;20034;-57
2024/01/02 10:52:31;;;;;;;15.18;12.13;;;;;;;-146.58;100.00;69501.63;5030685;28;20061;-57
2024/01/02 10:55:08;;;;;;;24.30;14.00;;;;;;;-146.58;100.00;69501.63;5028360;28;20404;-57
2024/01/02 10:58:02;;;;;;;21.27;13.90;;;;;;;-146.58;100.00;69501.63;5030976;28;20029;-57
2024/01/02 11:00:32;;;;;;;18.65;13.23;;;;;;;-146.58;100.00;69501.63;5028098;28;20038;-57
2024/01/02 11:03:06;;;;;;;27.98;15.35;;;;;;;-146.58;100.00;69501.63;5042793;28;20048;-57
2024/01/02 11:05:34;;;;;;;31.73;16.42;;;;;;;-146.58;100.00;69501.63;5049091;28;20128;-57